Time;durP1;ratioP1;P1;durP2;ratioP2;P2;SDS_P1;SDS_P2;PMS_P1;PMS_P2;Temp;Humidity;BMP_temperature;BMP_pressure;BME280_temperature;BME280_humidity;BME280_pressure;Samples;Min_cycle;Max_cycle;Signal;HPM_P1;HPM_P2
2022/10/23 00:01:42;;;;;;;8.70;3.17;;;8.80;99.90;;;;;;5097063;28;20100;-71
2022/10/23 00:04:19;;;;;;;7.20;3.45;;;8.90;99.90;;;;;;5097061;28;20106;-71
2022/10/23 00:06:47;;;;;;;8.57;3.60;;;8.80;99.90;;;;;;5096383;28;20031;-71
2022/10/23 00:09:16;;;;;;;5.60;3.08;;;8.80;99.90;;;;;;5096616;28;20016;-71
2022/10/23 00:11:46;;;;;;;11.15;4.13;;;8.80;99.90;;;;;;5096296;28;20024;-71
2022/10/23 00:14:17;;;;;;;7.88;2.90;;;8.80;99.90;;;;;;5096097;28;20469;-71
2022/10/23 00:16:44;;;;;;;8.32;3.25;;;8.80;99.90;;;;;;5096357;28;20028;-71
2022/10/23 00:19:12;;;;;;;10.57;3.40;;;8.80;99.90;;;;;;5096536;28;20327;-71
2022/10/23 00:21:40;;;;;;;8.13;3.13;;;8.80;99.90;;;;;;5078363;28;20388;-71
2022/10/23 00:24:07;;;;;;;8.90;2.95;;;8.80;99.90;;;;;;5096898;28;20050;-71
2022/10/23 00:26:37;;;;;;;7.22;3.25;;;8.80;99.90;;;;;;5096444;28;20030;-71
2022/10/23 00:29:04;;;;;;;6.22;3.28;;;8.80;99.90;;;;;;5096167;28;20051;-71
2022/10/23 00:31:32;;;;;;;8.20;3.53;;;8.80;99.90;;;;;;5096224;28;20017;-71
2022/10/23 00:33:59;;;;;;;9.68;2.97;;;8.80;99.90;;;;;;5096256;28;20016;-71
2022/10/23 00:36:27;;;;;;;7.53;3.63;;;8.80;99.90;;;;;;5095102;28;20081;-71
2022/10/23 00:38:54;;;;;;;8.20;2.95;;;8.70;99.90;;;;;;5096297;28;20026;-71
2022/10/23 00:41:27;;;;;;;6.82;2.80;;;8.70;99.90;;;;;;5078151;28;20024;-71
2022/10/23 00:44:01;;;;;;;9.38;3.55;;;8.70;99.90;;;;;;5096096;28;20075;-71
2022/10/23 00:46:29;;;;;;;7.53;3.28;;;8.70;99.90;;;;;;5077981;28;20332;-71
2022/10/23 00:48:58;;;;;;;8.90;3.22;;;8.70;99.90;;;;;;5078246;28;20024;-71
2022/10/23 00:51:31;;;;;;;8.90;3.42;;;8.70;99.90;;;;;;5094924;28;20020;-71
2022/10/23 00:54:02;;;;;;;12.18;3.28;;;8.80;99.90;;;;;;5076981;28;20449;-71
2022/10/23 00:56:32;;;;;;;8.10;3.45;;;8.80;99.90;;;;;;5079385;28;20016;-71
2022/10/23 00:58:59;;;;;;;9.40;3.75;;;8.70;99.90;;;;;;5080022;28;20025;-71
2022/10/23 01:01:27;;;;;;;8.05;3.60;;;8.70;99.90;;;;;;5079543;28;20347;-71
2022/10/23 01:03:56;;;;;;;8.10;4.05;;;8.70;99.90;;;;;;5079809;28;20340;-71
2022/10/23 01:06:49;;;;;;;9.05;3.75;;;8.70;99.90;;;;;;5079116;28;20024;-71
2022/10/23 01:09:50;;;;;;;6.05;4.00;;;8.60;99.90;;;;;;5078236;28;20031;-71
2022/10/23 01:12:44;;;;;;;13.30;5.10;;;8.60;99.90;;;;;;5079425;28;20016;-71
2022/10/23 01:15:47;;;;;;;10.25;3.90;;;8.60;99.90;;;;;;5079049;28;20036;-71
2022/10/23 01:18:44;;;;;;;7.32;4.07;;;8.50;99.90;;;;;;5079471;28;20025;-71
2022/10/23 01:21:37;;;;;;;12.88;4.78;;;8.50;99.90;;;;;;5079281;28;20031;-71
2022/10/23 01:24:41;;;;;;;12.32;3.72;;;8.50;99.90;;;;;;5077829;28;20031;-71
2022/10/23 01:27:33;;;;;;;9.90;2.88;;;8.40;99.90;;;;;;5077968;28;20028;-71
2022/10/23 01:30:15;;;;;;;11.15;3.55;;;8.40;99.90;;;;;;5079019;28;20031;-71
2022/10/23 01:33:33;;;;;;;8.48;3.08;;;8.30;99.90;;;;;;5078694;28;20025;-71
2022/10/23 01:36:14;;;;;;;9.48;3.22;;;8.20;99.90;;;;;;5076348;28;20425;-71
2022/10/23 01:38:53;;;;;;;7.65;3.40;;;8.20;99.90;;;;;;5079358;28;20040;-71
2022/10/23 01:41:45;;;;;;;10.52;3.35;;;8.10;99.90;;;;;;5078588;28;20055;-71
2022/10/23 01:44:36;;;;;;;13.90;4.35;;;8.10;99.90;;;;;;5077390;28;20017;-71
2022/10/23 01:47:08;;;;;;;8.77;2.97;;;8.10;99.90;;;;;;5078615;28;20023;-71
2022/10/23 01:49:41;;;;;;;9.05;3.53;;;8.00;99.90;;;;;;5078385;28;20017;-71
2022/10/23 01:52:13;;;;;;;4.70;2.92;;;8.00;99.90;;;;;;5080027;28;20044;-71
2022/10/23 01:54:44;;;;;;;5.95;2.90;;;7.90;99.90;;;;;;5098540;28;20293;-71
2022/10/23 01:57:15;;;;;;;6.03;2.42;;;7.90;99.90;;;;;;5098659;28;20028;-71
2022/10/23 01:59:50;;;;;;;18.70;3.83;;;7.80;99.90;;;;;;5098399;28;20016;-71
2022/10/23 02:02:19;;;;;;;31.35;3.38;;;7.80;99.90;;;;;;5098428;28;20024;-71
2022/10/23 02:05:02;;;;;;;5.22;2.42;;;7.80;99.90;;;;;;5097453;28;20016;-71
2022/10/23 02:07:30;;;;;;;7.53;2.05;;;7.70;99.90;;;;;;5098464;28;20012;-71
2022/10/23 02:09:58;;;;;;;7.85;2.90;;;7.70;99.90;;;;;;5097113;28;20442;-71
2022/10/23 02:12:35;;;;;;;5.90;2.33;;;7.60;99.90;;;;;;5098742;28;20028;-71
2022/10/23 02:15:28;;;;;;;6.82;3.92;;;7.60;99.90;;;;;;5098180;28;20416;-71
2022/10/23 02:18:22;;;;;;;4.00;2.63;;;7.60;99.90;;;;;;5098260;28;20110;-71
2022/10/23 02:20:58;;;;;;;5.10;2.65;;;7.60;99.90;;;;;;5098315;28;20024;-71
2022/10/23 02:23:49;;;;;;;7.93;2.95;;;7.50;99.90;;;;;;5098053;28;20420;-71
2022/10/23 02:26:39;;;;;;;7.53;2.95;;;7.50;99.90;;;;;;5098375;28;20032;-71
2022/10/23 02:29:20;;;;;;;3.80;2.35;;;7.50;99.90;;;;;;5097794;28;20016;-71
2022/10/23 02:31:47;;;;;;;5.28;2.08;;;7.50;99.90;;;;;;5098357;28;20012;-71
2022/10/23 02:34:15;;;;;;;5.45;2.38;;;7.50;99.90;;;;;;5097818;28;20016;-71
2022/10/23 02:36:42;;;;;;;8.95;2.83;;;7.40;99.90;;;;;;5097746;28;20293;-71
2022/10/23 02:39:09;;;;;;;11.52;2.20;;;7.40;99.90;;;;;;5097874;28;20074;-71
2022/10/23 02:41:51;;;;;;;9.80;2.97;;;7.40;99.90;;;;;;5097895;28;20024;-71
2022/10/23 02:44:41;;;;;;;4.45;2.50;;;7.30;99.90;;;;;;5097565;28;20024;-71
2022/10/23 02:47:32;;;;;;;9.80;3.35;;;7.30;99.90;;;;;;5097717;28;20326;-71
2022/10/23 02:50:05;;;;;;;9.15;2.40;;;7.30;99.90;;;;;;5097811;28;20020;-71
2022/10/23 02:53:03;;;;;;;13.43;3.05;;;7.30;99.90;;;;;;5093431;28;20048;-71
2022/10/23 02:56:03;;;;;;;9.07;2.85;;;7.20;99.90;;;;;;5077382;28;20021;-71
2022/10/23 02:58:31;;;;;;;7.15;2.72;;;7.20;99.90;;;;;;5077466;28;20097;-71
2022/10/23 03:01:20;;;;;;;22.15;2.95;;;7.20;99.90;;;;;;5077577;28;20032;-71
2022/10/23 03:04:13;;;;;;;6.22;2.25;;;7.10;99.90;;;;;;5077544;28;20098;-70
2022/10/23 03:06:41;;;;;;;10.10;2.63;;;7.10;99.90;;;;;;5075220;28;20166;-71
2022/10/23 03:09:09;;;;;;;27.50;3.40;;;7.10;99.90;;;;;;5077052;28;20019;-71
2022/10/23 03:11:36;;;;;;;38.47;5.32;;;7.00;99.90;;;;;;5076849;28;20020;-71
2022/10/23 03:14:04;;;;;;;44.88;4.53;;;7.00;99.90;;;;;;5076745;28;20028;-71
2022/10/23 03:16:31;;;;;;;6.22;2.38;;;7.00;99.90;;;;;;5077056;28;20025;-71
2022/10/23 03:18:58;;;;;;;20.42;3.28;;;7.00;99.90;;;;;;5076988;28;20078;-71
2022/10/23 03:21:25;;;;;;;6.72;3.30;;;7.00;99.90;;;;;;5077275;28;20036;-71
2022/10/23 03:23:53;;;;;;;5.88;2.85;;;7.00;99.90;;;;;;5077318;28;20025;-71
2022/10/23 03:26:20;;;;;;;4.93;2.53;;;7.00;99.90;;;;;;5077175;28;20103;-71
2022/10/23 03:28:47;;;;;;;3.35;2.15;;;7.00;99.90;;;;;;5077330;28;20020;-71
2022/10/23 03:31:15;;;;;;;4.53;2.55;;;7.00;99.90;;;;;;5077195;28;20099;-71
2022/10/23 03:33:42;;;;;;;9.35;2.75;;;7.00;99.90;;;;;;5075573;28;20484;-71
2022/10/23 03:36:09;;;;;;;7.15;3.22;;;7.00;99.90;;;;;;5077129;28;20024;-71
2022/10/23 03:38:37;;;;;;;10.05;2.70;;;7.00;99.90;;;;;;5076701;28;20017;-71
2022/10/23 03:41:04;;;;;;;6.25;2.95;;;7.10;99.90;;;;;;5076511;28;20025;-71
2022/10/23 03:43:33;;;;;;;15.10;3.15;;;7.20;99.90;;;;;;5076766;28;20545;-71
2022/10/23 03:46:01;;;;;;;7.07;3.85;;;7.20;99.90;;;;;;5076394;28;20108;-71
2022/10/23 03:48:28;;;;;;;7.47;3.45;;;7.20;99.90;;;;;;5077146;28;20046;-71
2022/10/23 03:50:56;;;;;;;7.45;3.85;;;7.20;99.90;;;;;;5076978;28;20343;-71
2022/10/23 03:53:23;;;;;;;6.82;3.40;;;7.30;99.90;;;;;;5088448;28;20051;-71
2022/10/23 03:55:51;;;;;;;6.60;3.33;;;7.30;99.90;;;;;;5097105;28;20027;-71
2022/10/23 03:58:18;;;;;;;7.10;3.55;;;7.30;99.90;;;;;;5097118;28;20043;-71
2022/10/23 04:00:45;;;;;;;12.32;3.33;;;7.40;99.90;;;;;;5097073;28;20020;-71
2022/10/23 04:03:12;;;;;;;7.82;3.60;;;7.30;99.90;;;;;;5096556;28;20028;-71
2022/10/23 04:05:41;;;;;;;8.57;3.40;;;7.30;99.90;;;;;;5096914;28;20028;-71
2022/10/23 04:08:09;;;;;;;10.57;3.47;;;7.30;99.90;;;;;;5097184;28;20103;-71
2022/10/23 04:10:37;;;;;;;7.18;3.38;;;7.30;99.90;;;;;;5096018;28;20142;-71
2022/10/23 04:13:04;;;;;;;6.65;3.42;;;7.30;99.90;;;;;;5078434;28;20020;-71
2022/10/23 04:15:31;;;;;;;7.30;3.40;;;7.40;99.90;;;;;;5078484;28;20024;-71
2022/10/23 04:17:58;;;;;;;7.90;3.58;;;7.40;99.90;;;;;;5096553;28;20024;-71
2022/10/23 04:20:26;;;;;;;18.88;5.13;;;7.50;99.90;;;;;;5078367;28;20056;-71
2022/10/23 04:22:53;;;;;;;9.10;3.90;;;7.50;99.90;;;;;;5096907;28;20051;-71
2022/10/23 04:25:22;;;;;;;7.95;3.97;;;7.50;99.90;;;;;;5095133;28;20028;-71
2022/10/23 04:27:49;;;;;;;18.25;4.30;;;7.50;99.90;;;;;;5097706;28;20020;-71
2022/10/23 04:30:16;;;;;;;10.23;4.40;;;7.60;99.90;;;;;;5100149;28;20115;-71
2022/10/23 04:32:43;;;;;;;9.23;3.60;;;7.60;99.90;;;;;;5100741;28;20098;-71
2022/10/23 04:35:12;;;;;;;10.70;4.30;;;7.60;99.90;;;;;;5100654;28;20024;-71
2022/10/23 04:37:39;;;;;;;11.90;4.57;;;7.70;99.90;;;;;;5100040;28;20366;-71
2022/10/23 04:40:07;;;;;;;8.20;4.25;;;7.70;99.90;;;;;;5100534;28;20043;-71
2022/10/23 04:42:34;;;;;;;8.40;3.67;;;7.70;99.90;;;;;;5100123;28;20069;-71
2022/10/23 04:45:02;;;;;;;14.32;6.55;;;7.70;99.90;;;;;;5100482;28;20308;-71
2022/10/23 04:47:29;;;;;;;13.63;4.53;;;7.70;99.90;;;;;;5081865;28;20020;-71
2022/10/23 04:49:56;;;;;;;12.45;4.38;;;7.70;99.90;;;;;;5100381;28;20103;-71
2022/10/23 04:52:23;;;;;;;8.65;3.92;;;7.70;99.90;;;;;;5099714;28;20040;-71
2022/10/23 04:54:51;;;;;;;10.02;3.70;;;7.70;99.90;;;;;;5100279;28;20016;-71
2022/10/23 04:57:18;;;;;;;17.67;4.85;;;7.70;99.90;;;;;;5081747;28;20324;-71
2022/10/23 04:59:45;;;;;;;8.63;4.03;;;7.70;99.90;;;;;;5099616;28;20301;-71
2022/10/23 05:02:12;;;;;;;7.18;4.35;;;7.70;99.90;;;;;;5099812;28;20016;-71
2022/10/23 05:04:40;;;;;;;11.30;4.15;;;7.70;99.90;;;;;;5099489;28;20023;-71
2022/10/23 05:07:07;;;;;;;11.32;4.43;;;7.60;99.90;;;;;;5100120;28;20027;-71
2022/10/23 05:09:35;;;;;;;13.68;4.25;;;7.70;99.90;;;;;;5081381;28;20052;-71
2022/10/23 05:12:02;;;;;;;17.50;4.05;;;7.60;99.90;;;;;;5081600;28;20454;-71
2022/10/23 05:14:29;;;;;;;14.70;5.75;;;7.60;99.90;;;;;;5099309;28;20024;-71
2022/10/23 05:17:15;;;;;;;19.60;7.13;;;7.60;99.90;;;;;;5081350;28;20032;-71
2022/10/23 05:19:45;;;;;;;;;;;7.60;99.90;;;;;;5100070;28;20085;-71
2022/10/23 05:22:14;;;;;;;22.58;6.82;;;7.60;99.90;;;;;;5099924;28;19912;-71
2022/10/23 05:24:41;;;;;;;16.83;7.05;;;7.60;99.90;;;;;;5081092;28;20530;-71
2022/10/23 05:27:08;;;;;;;18.88;7.03;;;7.60;99.90;;;;;;5099353;28;20298;-71
2022/10/23 05:29:36;;;;;;;22.30;8.05;;;7.60;99.90;;;;;;5099031;28;20017;-71
2022/10/23 05:32:05;;;;;;;25.40;7.45;;;7.60;99.90;;;;;;5081516;28;20312;-71
2022/10/23 05:34:35;;;;;;;23.52;7.13;;;7.60;99.90;;;;;;5098981;28;20058;-71
2022/10/23 05:37:06;;;;;;;42.25;7.15;;;7.60;99.90;;;;;;5098964;28;20447;-70
2022/10/23 05:39:34;;;;;;;26.60;7.45;;;7.60;99.90;;;;;;5098679;28;20024;-71
2022/10/23 05:42:02;;;;;;;48.17;8.15;;;7.60;99.90;;;;;;5081055;28;20138;-71
2022/10/23 05:44:29;;;;;;;37.15;7.13;;;7.60;99.90;;;;;;5098703;28;20020;-71
2022/10/23 05:46:56;;;;;;;60.72;7.75;;;7.50;99.90;;;;;;5099245;28;20047;-71
2022/10/23 05:49:27;;;;;;;57.67;7.95;;;7.50;99.90;;;;;;5098691;28;20024;-71
2022/10/23 05:51:54;;;;;;;45.78;8.27;;;7.50;99.90;;;;;;5080850;28;20023;-71
2022/10/23 05:54:21;;;;;;;29.10;6.82;;;7.50;99.90;;;;;;5098428;28;20040;-76
2022/10/23 05:56:49;;;;;;;47.08;9.50;;;7.50;99.90;;;;;;5098890;28;20034;-78
2022/10/23 05:59:16;;;;;;;54.42;8.98;;;7.50;99.90;;;;;;5080409;28;20485;-79
2022/10/23 06:01:43;;;;;;;46.72;8.63;;;7.50;99.90;;;;;;5098631;28;20020;-79
2022/10/23 06:04:10;;;;;;;37.33;9.85;;;7.50;99.90;;;;;;5098743;28;20027;-81
2022/10/23 06:06:38;;;;;;;44.95;9.05;;;7.50;99.90;;;;;;5098313;28;20024;-77
2022/10/23 06:09:05;;;;;;;33.85;8.40;;;7.50;99.90;;;;;;5081316;28;20008;-83
2022/10/23 06:11:35;;;;;;;36.28;7.63;;;7.50;99.90;;;;;;5080382;28;20462;-81
2022/10/23 06:14:03;;;;;;;34.88;5.93;;;7.50;99.90;;;;;;5080138;28;20389;-81
2022/10/23 06:16:31;;;;;;;14.27;4.90;;;7.50;99.90;;;;;;5080202;28;20076;-82
2022/10/23 06:18:59;;;;;;;33.15;5.35;;;7.50;99.90;;;;;;5097059;28;20035;-77
2022/10/23 06:21:26;;;;;;;23.25;3.75;;;7.50;99.90;;;;;;5098142;28;20028;-82
2022/10/23 06:23:55;;;;;;;13.88;4.68;;;7.40;99.90;;;;;;5080319;28;20119;-82
2022/10/23 06:26:22;;;;;;;21.02;4.72;;;7.40;99.90;;;;;;5079946;28;20131;-84
2022/10/23 06:28:50;;;;;;;17.85;4.18;;;7.50;99.90;;;;;;5080016;28;20313;-84
2022/10/23 06:31:19;;;;;;;16.20;4.25;;;7.40;99.90;;;;;;5079906;28;20027;-79
2022/10/23 06:33:46;;;;;;;8.52;4.07;;;7.40;99.90;;;;;;5079998;28;20028;-80
2022/10/23 06:36:13;;;;;;;13.30;4.38;;;7.40;99.90;;;;;;5097864;28;20396;-81
2022/10/23 06:38:40;;;;;;;11.05;4.80;;;7.40;99.90;;;;;;5097782;28;20028;-80
2022/10/23 06:41:16;;;;;;;12.77;4.57;;;7.40;99.90;;;;;;5097707;28;20028;-79
2022/10/23 06:43:47;;;;;;;10.00;4.13;;;7.40;99.90;;;;;;5079794;28;20148;-77
2022/10/23 06:46:15;;;;;;;11.35;4.15;;;7.50;99.90;;;;;;5097528;28;20024;-77
2022/10/23 06:48:42;;;;;;;14.35;4.88;;;7.50;99.90;;;;;;5097022;28;20416;-80
2022/10/23 06:51:17;;;;;;;9.20;4.60;;;7.60;99.90;;;;;;5096469;28;20035;-84
2022/10/23 06:53:44;;;;;;;9.18;4.85;;;7.60;99.90;;;;;;5076370;28;20044;-77
2022/10/23 06:56:12;;;;;;;8.38;5.20;;;7.70;99.90;;;;;;5077400;28;20129;-77
2022/10/23 06:58:40;;;;;;;8.73;4.80;;;7.70;99.90;;;;;;5077313;28;20017;-76
2022/10/23 07:01:11;;;;;;;6.22;4.20;;;7.80;99.90;;;;;;5077081;28;20024;-75
2022/10/23 07:03:38;;;;;;;8.23;4.70;;;7.80;99.90;;;;;;5077165;28;20069;-76
2022/10/23 07:06:09;;;;;;;8.73;5.25;;;7.90;99.90;;;;;;5075774;28;20301;-78
2022/10/23 07:08:37;;;;;;;11.02;4.97;;;8.00;99.90;;;;;;5077244;28;20016;-76
2022/10/23 07:11:07;;;;;;;7.28;4.07;;;8.00;99.90;;;;;;5077243;28;20067;-76
2022/10/23 07:13:35;;;;;;;12.25;4.72;;;8.10;99.90;;;;;;5075859;28;20027;-75
2022/10/23 07:16:15;;;;;;;13.60;5.30;;;8.20;99.90;;;;;;5075766;28;20028;-76
2022/10/23 07:18:43;;;;;;;8.27;3.95;;;8.20;99.90;;;;;;5093019;28;20024;-75
2022/10/23 07:21:11;;;;;;;7.45;4.40;;;8.30;99.90;;;;;;5075689;28;20439;-76
2022/10/23 07:23:38;;;;;;;5.88;4.22;;;8.30;99.90;;;;;;5075816;28;20166;-78
2022/10/23 07:26:13;;;;;;;7.47;4.90;;;8.30;99.90;;;;;;5076813;28;20047;-77
2022/10/23 07:28:41;;;;;;;7.13;4.70;;;8.40;99.90;;;;;;5075536;28;20020;-77
2022/10/23 07:31:10;;;;;;;8.13;4.93;;;8.50;99.90;;;;;;5076586;28;20020;-77
2022/10/23 07:33:38;;;;;;;6.72;4.18;;;8.60;99.90;;;;;;5075162;28;20025;-77
2022/10/23 07:36:07;;;;;;;6.05;4.25;;;8.70;99.90;;;;;;5076773;28;20487;-78
2022/10/23 07:38:35;;;;;;;6.55;4.57;;;8.70;99.90;;;;;;5075488;28;20024;-77
2022/10/23 07:41:03;;;;;;;6.43;4.20;;;8.80;99.90;;;;;;5076834;28;20039;-77
2022/10/23 07:43:31;;;;;;;5.35;3.63;;;8.90;99.90;;;;;;5076592;28;20017;-77
2022/10/23 07:45:58;;;;;;;6.50;4.40;;;8.90;99.90;;;;;;5092235;28;20035;-77
2022/10/23 07:48:26;;;;;;;6.60;4.25;;;9.00;99.90;;;;;;5076742;28;20045;-76
2022/10/23 07:51:06;;;;;;;6.07;3.78;;;9.10;99.90;;;;;;5075321;28;20021;-74
2022/10/23 07:53:35;;;;;;;6.57;5.10;;;9.20;99.90;;;;;;5075199;28;20044;-76
2022/10/23 07:56:11;;;;;;;8.38;4.72;;;9.30;99.90;;;;;;5076395;28;20082;-75
2022/10/23 07:58:39;;;;;;;8.20;5.50;;;9.40;99.90;;;;;;5075168;28;20120;-75
2022/10/23 08:01:18;;;;;;;7.55;5.35;;;9.50;99.90;;;;;;5076303;28;20043;-76
2022/10/23 08:03:46;;;;;;;6.47;4.95;;;9.60;99.90;;;;;;5078823;28;20021;-74
2022/10/23 08:06:13;;;;;;;5.78;4.20;;;9.70;99.90;;;;;;5080554;28;20036;-75
2022/10/23 08:08:41;;;;;;;5.70;4.20;;;9.80;99.90;;;;;;5080398;28;20045;-76
2022/10/23 08:11:17;;;;;;;6.38;4.35;;;9.90;99.90;;;;;;5080848;28;20020;-76
2022/10/23 08:13:44;;;;;;;5.03;3.97;;;10.00;99.90;;;;;;5080376;28;20029;-75
2022/10/23 08:16:12;;;;;;;6.55;4.88;;;10.10;99.90;;;;;;5079183;28;20107;-76
2022/10/23 08:18:41;;;;;;;7.63;4.57;;;10.20;99.90;;;;;;5080795;28;20313;-88
2022/10/23 08:21:10;;;;;;;8.80;4.70;;;10.30;99.90;;;;;;5079043;28;20040;-75
2022/10/23 08:23:38;;;;;;;7.32;4.22;;;10.40;99.90;;;;;;5079135;28;20124;-75
2022/10/23 08:26:06;;;;;;;8.10;4.70;;;10.60;99.90;;;;;;5080527;28;20032;-74
2022/10/23 08:28:34;;;;;;;9.75;2.90;;;10.70;99.90;;;;;;5079915;28;20021;-76
2022/10/23 08:31:10;;;;;;;5.82;2.33;;;10.90;99.90;;;;;;5079931;28;20024;-75
2022/10/23 08:33:38;;;;;;;5.07;2.65;;;11.20;99.90;;;;;;5080001;28;20017;-74
2022/10/23 08:36:15;;;;;;;11.02;2.75;;;11.50;99.90;;;;;;5080310;28;20025;-74
2022/10/23 08:38:42;;;;;;;7.53;2.17;;;11.80;99.90;;;;;;5079861;28;20298;-74
2022/10/23 08:41:38;;;;;;;4.85;1.88;;;12.10;99.90;;;;;;5079762;28;20432;-74
2022/10/23 08:44:23;;;;;;;7.20;2.10;;;12.30;99.90;;;;;;5079763;28;20021;-77
2022/10/23 08:47:24;;;;;;;4.22;1.50;;;12.60;99.90;;;;;;5079679;28;20320;-80
2022/10/23 08:50:13;;;;;;;2.65;1.42;;;12.80;99.90;;;;;;5074144;28;20032;-76
2022/10/23 08:53:03;;;;;;;6.47;2.65;;;13.00;99.90;;;;;;5085360;28;20089;-77
2022/10/23 08:55:37;;;;;;;6.63;1.75;;;13.20;99.90;;;;;;5100041;28;20016;-78
2022/10/23 08:58:36;;;;;;;6.05;3.08;;;13.30;99.90;;;;;;5099637;28;20076;-76
2022/10/23 09:01:40;;;;;;;5.28;1.60;;;13.40;99.90;;;;;;5078581;28;20118;-76
2022/10/23 09:04:13;;;;;;;5.07;1.77;;;13.50;99.90;;;;;;5099559;28;20023;-76
2022/10/23 09:07:02;;;;;;;3.67;1.98;;;13.60;99.90;;;;;;5099527;28;20078;-75
2022/10/23 09:09:59;;;;;;;7.40;2.55;;;13.70;99.90;;;;;;5099466;28;20372;-75
2022/10/23 09:12:30;;;;;;;12.20;5.30;;;13.80;99.90;;;;;;5081679;28;20020;-75
2022/10/23 09:15:18;;;;;;;7.32;2.40;;;13.90;99.90;;;;;;5097665;28;20026;-74
2022/10/23 09:17:46;;;;;;;2.78;1.23;;;14.00;99.90;;;;;;5099634;28;20044;-79
2022/10/23 09:20:33;;;;;;;4.63;2.13;;;14.10;99.90;;;;;;5099288;28;20095;-76
2022/10/23 09:23:01;;;;;;;;;;;14.20;99.90;;;;;;5100386;28;20399;-78
2022/10/23 09:25:38;;;;;;;4.43;1.63;;;14.20;99.90;;;;;;5081185;28;19908;-77
2022/10/23 09:28:05;;;;;;;5.13;1.73;;;14.30;99.90;;;;;;5081168;28;20031;-77
2022/10/23 09:30:41;;;;;;;2.95;1.30;;;14.40;99.90;;;;;;5099142;28;20095;-77
2022/10/23 09:33:19;;;;;;;8.90;2.30;;;14.40;99.90;;;;;;5098255;28;20020;-77
2022/10/23 09:35:58;;;;;;;5.03;1.65;;;14.50;99.90;;;;;;5099224;28;20020;-76
2022/10/23 09:38:48;;;;;;;5.78;2.08;;;14.50;99.90;;;;;;5097830;28;20120;-81
2022/10/23 09:41:30;;;;;;;5.50;2.95;;;14.50;99.90;;;;;;5080939;28;20027;-81
2022/10/23 09:44:19;;;;;;;8.85;5.30;;;14.60;99.90;;;;;;5098957;28;20362;-76
2022/10/23 09:46:53;;;;;;;5.78;2.53;;;14.70;99.90;;;;;;5099005;28;20027;-78
2022/10/23 09:49:29;;;;;;;2.65;1.40;;;14.70;99.90;;;;;;5098706;28;20409;-76
2022/10/23 09:52:23;;;;;;;6.40;1.90;;;14.80;99.90;;;;;;5099145;28;20109;-76
2022/10/23 09:54:54;;;;;;;6.35;1.48;;;14.80;99.90;;;;;;5058321;28;20029;-77
2022/10/23 09:57:41;;;;;;;4.82;1.30;;;15.00;99.90;;;;;;5074035;28;20070;-77
2022/10/23 10:00:15;;;;;;;6.22;1.30;;;15.10;99.90;;;;;;5058253;28;20049;-77
2022/10/23 10:03:06;;;;;;;5.10;1.17;;;15.20;99.90;;;;;;5058670;28;20314;-78
2022/10/23 10:05:43;;;;;;;8.23;1.55;;;15.30;99.90;;;;;;5060049;28;20036;-77
2022/10/23 10:08:55;;;;;;;5.75;1.13;;;15.40;99.90;;;;;;5058471;28;20095;-77
2022/10/23 10:11:37;;;;;;;2.90;0.95;;;15.60;99.90;;;;;;5056749;28;20029;-78
2022/10/23 10:14:40;;;;;;;7.25;1.20;;;15.60;99.90;;;;;;5058077;28;20025;-78
2022/10/23 10:17:20;;;;;;;6.60;1.30;;;15.80;99.90;;;;;;5058265;28;20025;-77
2022/10/23 10:20:07;;;;;;;3.97;1.50;;;15.90;99.90;;;;;;5056913;28;20025;-76
2022/10/23 10:22:50;;;;;;;5.05;0.90;;;16.00;99.90;;;;;;5056955;28;20033;-77
2022/10/23 10:25:21;;;;;;;4.43;1.13;;;16.10;99.90;;;;;;5057152;28;20060;-77
2022/10/23 10:28:13;;;;;;;10.35;1.10;;;16.20;99.90;;;;;;5058044;28;20109;-75
2022/10/23 10:31:02;;;;;;;5.50;1.27;;;16.30;99.90;;;;;;5057936;28;20013;-77
2022/10/23 10:34:01;;;;;;;8.13;1.27;;;16.40;99.90;;;;;;5058079;28;20100;-77
2022/10/23 10:36:49;;;;;;;5.07;1.17;;;16.50;99.90;;;;;;5057860;28;20024;-77
2022/10/23 10:39:27;;;;;;;6.20;0.88;;;16.50;99.90;;;;;;5058038;28;20025;-77
2022/10/23 10:42:18;;;;;;;7.03;1.92;;;16.60;99.90;;;;;;5057780;28;20031;-77
2022/10/23 10:45:25;;;;;;;2.15;1.00;;;16.70;99.90;;;;;;5056317;28;20025;-77
2022/10/23 10:48:21;;;;;;;4.15;1.42;;;16.80;99.90;;;;;;5056220;28;20044;-78
2022/10/23 10:50:52;;;;;;;3.57;1.13;;;16.90;99.90;;;;;;5057320;28;20029;-77
2022/10/23 10:53:55;;;;;;;5.32;1.10;;;16.90;99.90;;;;;;5079203;28;20282;-74
2022/10/23 10:56:27;;;;;;;7.00;1.30;;;17.00;99.90;;;;;;5096344;28;20073;-76
2022/10/23 10:59:14;;;;;;;4.28;1.10;;;17.10;99.90;;;;;;5096421;28;20024;-77
2022/10/23 11:01:51;;;;;;;2.50;1.00;;;17.20;99.90;;;;;;5097680;28;20353;-76
2022/10/23 11:05:04;;;;;;;4.22;1.00;;;17.30;99.90;;;;;;5097287;28;20063;-76
2022/10/23 11:07:48;;;;;;;7.82;1.75;;;17.40;99.90;;;;;;5093302;28;20036;-75
2022/10/23 11:10:18;;;;;;;2.92;0.75;;;17.50;99.90;;;;;;5097208;28;20026;-77
2022/10/23 11:12:47;;;;;;;3.60;0.90;;;17.60;99.90;;;;;;5097145;28;20016;-77
2022/10/23 11:15:23;;;;;;;2.67;0.90;;;17.60;99.90;;;;;;5096934;28;20089;-74
2022/10/23 11:18:00;;;;;;;3.00;0.90;;;17.60;99.90;;;;;;5097797;28;20020;-73
2022/10/23 11:21:11;;;;;;;4.95;1.00;;;17.70;99.90;;;;;;5097269;28;20408;-72
2022/10/23 11:24:03;;;;;;;5.70;0.85;;;17.80;99.90;;;;;;5074039;28;20032;-72
2022/10/23 11:27:00;;;;;;;3.13;0.77;;;17.90;99.90;;;;;;5097112;28;20024;-71
2022/10/23 11:29:56;;;;;;;2.08;0.70;;;18.00;99.90;;;;;;5096861;28;20482;-72
2022/10/23 11:33:01;;;;;;;5.50;1.02;;;18.10;99.90;;;;;;5097400;28;20400;-73
2022/10/23 11:35:50;;;;;;;2.65;0.85;;;18.20;99.90;;;;;;5097084;28;20050;-72
2022/10/23 11:38:24;;;;;;;2.20;0.77;;;18.30;99.90;;;;;;5097310;28;20047;-72
2022/10/23 11:40:55;;;;;;;3.65;1.10;;;18.20;99.90;;;;;;5096859;28;20424;-73
2022/10/23 11:43:35;;;;;;;4.22;0.80;;;18.20;99.90;;;;;;5078929;28;20024;-72
2022/10/23 11:46:24;;;;;;;5.22;0.95;;;18.10;99.90;;;;;;5097201;28;20027;-72
2022/10/23 11:48:53;;;;;;;2.58;0.80;;;18.10;99.90;;;;;;5097213;28;20025;-72
2022/10/23 11:51:38;;;;;;;4.40;0.90;;;18.10;99.90;;;;;;5096656;28;20016;-72
2022/10/23 11:54:15;;;;;;;3.42;0.88;;;18.00;99.90;;;;;;5096563;28;20047;-72
2022/10/23 11:57:16;;;;;;;5.53;1.05;;;17.90;99.90;;;;;;5078882;28;20089;-73
2022/10/23 11:59:52;;;;;;;5.82;2.63;;;17.90;99.90;;;;;;5094449;28;20036;-73
2022/10/23 12:02:38;;;;;;;5.40;1.17;;;17.90;99.90;;;;;;5096655;28;20103;-73
2022/10/23 12:05:25;;;;;;;3.25;0.88;;;17.80;99.90;;;;;;5096754;28;20024;-72
2022/10/23 12:08:01;;;;;;;5.13;0.93;;;17.80;99.90;;;;;;5097023;28;20016;-73
2022/10/23 12:10:30;;;;;;;;;;;17.80;99.90;;;;;;5096989;28;20050;-72
2022/10/23 12:13:00;;;;;;;2.85;0.80;;;17.80;99.90;;;;;;5096832;28;20189;-72
2022/10/23 12:15:28;;;;;;;4.53;1.10;;;17.80;99.90;;;;;;5097290;28;20027;-72
2022/10/23 12:18:14;;;;;;;1.67;0.63;;;17.80;99.90;;;;;;5096615;28;20030;-72
2022/10/23 12:20:53;;;;;;;5.13;0.90;;;17.90;99.90;;;;;;5096495;28;20024;-73
2022/10/23 12:23:29;;;;;;;4.95;0.98;;;17.90;99.90;;;;;;5096485;28;20106;-72
2022/10/23 12:26:10;;;;;;;2.50;0.95;;;17.80;99.90;;;;;;5096897;28;20086;-72
2022/10/23 12:28:52;;;;;;;2.10;0.90;;;17.90;99.90;;;;;;5078406;28;20024;-75
2022/10/23 12:31:47;;;;;;;5.00;1.00;;;17.80;99.90;;;;;;5078348;28;20028;-75
2022/10/23 12:34:42;;;;;;;2.13;0.90;;;17.80;99.90;;;;;;5096538;28;20016;-75
2022/10/23 12:37:26;;;;;;;3.88;1.00;;;17.80;99.90;;;;;;5078390;28;20035;-72
2022/10/23 12:39:55;;;;;;;3.58;0.85;;;17.70;99.90;;;;;;5096796;28;20032;-73
2022/10/23 12:42:28;;;;;;;5.18;1.15;;;17.70;99.90;;;;;;5078327;28;20054;-75
2022/10/23 12:45:10;;;;;;;2.08;0.95;;;17.70;99.90;;;;;;5094940;28;20370;-73
2022/10/23 12:47:38;;;;;;;6.00;1.20;;;17.70;99.90;;;;;;5078380;28;20024;-78
2022/10/23 12:50:27;;;;;;;3.65;1.00;;;17.80;99.90;;;;;;5098772;28;20094;-75
2022/10/23 12:53:09;;;;;;;3.22;1.27;;;17.80;99.90;;;;;;5099748;28;20040;-74
2022/10/23 12:56:12;;;;;;;3.45;1.42;;;17.80;99.90;;;;;;5098651;28;20358;-74
2022/10/23 12:58:51;;;;;;;3.70;0.80;;;17.90;99.90;;;;;;5060752;28;20119;-74
2022/10/23 13:01:28;;;;;;;5.88;1.23;;;17.80;99.90;;;;;;5099959;28;20025;-74
2022/10/23 13:04:09;;;;;;;5.47;1.52;;;17.80;99.90;;;;;;5099662;28;20043;-75
2022/10/23 13:06:38;;;;;;;3.22;1.30;;;17.70;99.90;;;;;;5099934;28;20315;-73
2022/10/23 13:09:16;;;;;;;4.28;1.38;;;17.70;99.90;;;;;;5100069;28;20100;-73
2022/10/23 13:11:44;;;;;;;5.80;2.47;;;17.70;99.90;;;;;;5100018;28;20058;-77
2022/10/23 13:14:13;;;;;;;2.03;1.00;;;17.60;99.90;;;;;;5099615;28;20020;-73
2022/10/23 13:16:40;;;;;;;4.43;0.98;;;17.60;99.90;;;;;;5099555;28;20024;-74
2022/10/23 13:19:23;;;;;;;2.53;0.82;;;17.60;99.90;;;;;;5099856;28;20073;-75
2022/10/23 13:21:50;;;;;;;3.55;1.00;;;17.60;99.90;;;;;;5099273;28;20030;-75
2022/10/23 13:24:24;;;;;;;1.92;1.02;;;17.60;99.90;;;;;;5099227;28;20024;-75
2022/10/23 13:26:51;;;;;;;7.05;1.73;;;17.60;99.90;;;;;;5081250;28;20032;-76
2022/10/23 13:29:45;;;;;;;6.40;1.60;;;17.60;99.90;;;;;;5099220;28;20020;-76
2022/10/23 13:32:23;;;;;;;2.42;1.00;;;17.60;99.90;;;;;;5079436;28;20024;-75
2022/10/23 13:34:56;;;;;;;10.18;1.25;;;17.60;99.90;;;;;;5097984;28;20024;-75